sensor_id;sensor_type;location;lat;lon;timestamp;temperature;humidity
5938;DHT22;2994;51.220;4.412;2023-07-31T00:00:20;20.12;72.58
5938;DHT22;2994;51.220;4.412;2023-07-31T00:02:56;20.12;72.46
5938;DHT22;2994;51.220;4.412;2023-07-31T00:05:24;19.97;72.64
5938;DHT22;2994;51.220;4.412;2023-07-31T00:07:50;19.91;72.51
5938;DHT22;2994;51.220;4.412;2023-07-31T00:10:15;19.96;72.30
5938;DHT22;2994;51.220;4.412;2023-07-31T00:12:44;19.94;72.26
5938;DHT22;2994;51.220;4.412;2023-07-31T00:15:16;19.84;72.60
5938;DHT22;2994;51.220;4.412;2023-07-31T00:17:41;19.74;72.97
5938;DHT22;2994;51.220;4.412;2023-07-31T00:20:07;19.83;72.54
5938;DHT22;2994;51.220;4.412;2023-07-31T00:22:33;19.95;72.09
5938;DHT22;2994;51.220;4.412;2023-07-31T00:24:58;19.85;72.47
5938;DHT22;2994;51.220;4.412;2023-07-31T00:27:25;19.89;72.05
5938;DHT22;2994;51.220;4.412;2023-07-31T00:29:50;19.90;72.17
5938;DHT22;2994;51.220;4.412;2023-07-31T00:32:16;19.90;71.93
5938;DHT22;2994;51.220;4.412;2023-07-31T00:34:41;19.90;72.11
5938;DHT22;2994;51.220;4.412;2023-07-31T00:37:06;19.86;72.22
5938;DHT22;2994;51.220;4.412;2023-07-31T00:39:33;20.00;71.67
5938;DHT22;2994;51.220;4.412;2023-07-31T00:42:06;19.95;71.71
5938;DHT22;2994;51.220;4.412;2023-07-31T00:44:35;19.73;72.38
5938;DHT22;2994;51.220;4.412;2023-07-31T00:47:03;19.82;71.84
5938;DHT22;2994;51.220;4.412;2023-07-31T00:49:31;19.86;71.55
5938;DHT22;2994;51.220;4.412;2023-07-31T00:51:58;19.94;71.25
5938;DHT22;2994;51.220;4.412;2023-07-31T00:54:27;19.97;71.13
5938;DHT22;2994;51.220;4.412;2023-07-31T00:56:54;19.88;70.94
5938;DHT22;2994;51.220;4.412;2023-07-31T00:59:20;19.88;71.06
5938;DHT22;2994;51.220;4.412;2023-07-31T01:01:48;19.99;70.78
5938;DHT22;2994;51.220;4.412;2023-07-31T01:04:17;19.77;71.14
5938;DHT22;2994;51.220;4.412;2023-07-31T01:06:56;19.89;70.94
5938;DHT22;2994;51.220;4.412;2023-07-31T01:12:27;19.88;70.51
5938;DHT22;2994;51.220;4.412;2023-07-31T01:15:06;19.95;70.65
5938;DHT22;2994;51.220;4.412;2023-07-31T01:17:32;19.92;70.42
5938;DHT22;2994;51.220;4.412;2023-07-31T01:20:02;19.99;70.29
5938;DHT22;2994;51.220;4.412;2023-07-31T01:22:31;20.01;70.32
5938;DHT22;2994;51.220;4.412;2023-07-31T01:25:32;19.94;70.33
5938;DHT22;2994;51.220;4.412;2023-07-31T01:28:13;19.99;70.16
5938;DHT22;2994;51.220;4.412;2023-07-31T01:30:43;19.99;70.12
5938;DHT22;2994;51.220;4.412;2023-07-31T01:33:10;20.06;69.68
5938;DHT22;2994;51.220;4.412;2023-07-31T01:35:44;20.02;69.89
5938;DHT22;2994;51.220;4.412;2023-07-31T01:38:10;20.00;69.67
5938;DHT22;2994;51.220;4.412;2023-07-31T01:43:16;20.02;69.79
5938;DHT22;2994;51.220;4.412;2023-07-31T01:45:43;20.07;69.30
5938;DHT22;2994;51.220;4.412;2023-07-31T01:48:09;20.12;69.19
5938;DHT22;2994;51.220;4.412;2023-07-31T01:50:35;20.14;69.32
5938;DHT22;2994;51.220;4.412;2023-07-31T01:53:01;20.11;69.43
5938;DHT22;2994;51.220;4.412;2023-07-31T01:55:26;20.16;69.23
5938;DHT22;2994;51.220;4.412;2023-07-31T01:57:53;20.19;68.88
5938;DHT22;2994;51.220;4.412;2023-07-31T02:00:19;20.05;69.04
5938;DHT22;2994;51.220;4.412;2023-07-31T02:02:46;20.00;69.68
5938;DHT22;2994;51.220;4.412;2023-07-31T02:05:11;20.01;69.90
5938;DHT22;2994;51.220;4.412;2023-07-31T02:07:37;20.03;69.76
5938;DHT22;2994;51.220;4.412;2023-07-31T02:10:03;20.10;69.64
5938;DHT22;2994;51.220;4.412;2023-07-31T02:12:28;20.11;69.68
5938;DHT22;2994;51.220;4.412;2023-07-31T02:14:57;20.10;69.65
5938;DHT22;2994;51.220;4.412;2023-07-31T02:17:24;20.11;69.87
5938;DHT22;2994;51.220;4.412;2023-07-31T02:19:50;20.10;69.92
5938;DHT22;2994;51.220;4.412;2023-07-31T02:22:15;20.06;70.09
5938;DHT22;2994;51.220;4.412;2023-07-31T02:24:41;20.02;70.27
5938;DHT22;2994;51.220;4.412;2023-07-31T02:27:06;19.96;70.54
5938;DHT22;2994;51.220;4.412;2023-07-31T02:29:35;20.05;70.05
5938;DHT22;2994;51.220;4.412;2023-07-31T02:32:00;19.96;70.52
5938;DHT22;2994;51.220;4.412;2023-07-31T02:34:26;20.02;70.22
5938;DHT22;2994;51.220;4.412;2023-07-31T02:36:51;20.09;70.29
5938;DHT22;2994;51.220;4.412;2023-07-31T02:39:17;20.11;70.19
5938;DHT22;2994;51.220;4.412;2023-07-31T02:41:42;20.04;70.16
5938;DHT22;2994;51.220;4.412;2023-07-31T02:44:08;20.06;70.45
5938;DHT22;2994;51.220;4.412;2023-07-31T02:46:33;20.06;70.43
5938;DHT22;2994;51.220;4.412;2023-07-31T02:48:59;19.99;70.69
5938;DHT22;2994;51.220;4.412;2023-07-31T02:51:25;20.05;70.60
5938;DHT22;2994;51.220;4.412;2023-07-31T02:53:50;19.99;70.85
5938;DHT22;2994;51.220;4.412;2023-07-31T02:56:16;20.12;70.43
5938;DHT22;2994;51.220;4.412;2023-07-31T02:58:41;20.05;70.74
5938;DHT22;2994;51.220;4.412;2023-07-31T03:01:13;20.09;70.72
5938;DHT22;2994;51.220;4.412;2023-07-31T03:03:48;20.09;70.72
5938;DHT22;2994;51.220;4.412;2023-07-31T03:06:17;20.11;70.88
5938;DHT22;2994;51.220;4.412;2023-07-31T03:08:43;20.15;70.90
5938;DHT22;2994;51.220;4.412;2023-07-31T03:11:15;20.16;71.06
5938;DHT22;2994;51.220;4.412;2023-07-31T03:13:40;20.18;71.10
5938;DHT22;2994;51.220;4.412;2023-07-31T03:16:13;20.16;71.50
5938;DHT22;2994;51.220;4.412;2023-07-31T03:19:02;20.21;71.38
5938;DHT22;2994;51.220;4.412;2023-07-31T03:21:35;20.24;71.31
5938;DHT22;2994;51.220;4.412;2023-07-31T03:24:00;20.19;71.85
5938;DHT22;2994;51.220;4.412;2023-07-31T03:26:26;20.19;72.05
5938;DHT22;2994;51.220;4.412;2023-07-31T03:28:51;20.22;71.99
5938;DHT22;2994;51.220;4.412;2023-07-31T03:31:18;20.16;72.41
5938;DHT22;2994;51.220;4.412;2023-07-31T03:33:44;20.25;72.03
5938;DHT22;2994;51.220;4.412;2023-07-31T03:36:09;20.29;71.94
5938;DHT22;2994;51.220;4.412;2023-07-31T03:38:35;20.30;72.27
5938;DHT22;2994;51.220;4.412;2023-07-31T03:41:00;20.28;72.49
5938;DHT22;2994;51.220;4.412;2023-07-31T03:43:29;20.32;72.25
5938;DHT22;2994;51.220;4.412;2023-07-31T03:45:56;20.29;72.49
5938;DHT22;2994;51.220;4.412;2023-07-31T03:48:21;20.32;72.41
5938;DHT22;2994;51.220;4.412;2023-07-31T03:50:52;20.37;72.28
5938;DHT22;2994;51.220;4.412;2023-07-31T03:53:20;20.34;72.45
5938;DHT22;2994;51.220;4.412;2023-07-31T03:55:46;20.35;72.47
5938;DHT22;2994;51.220;4.412;2023-07-31T03:58:12;20.39;72.41
5938;DHT22;2994;51.220;4.412;2023-07-31T04:00:40;20.40;72.94
5938;DHT22;2994;51.220;4.412;2023-07-31T04:03:06;20.14;74.13
5938;DHT22;2994;51.220;4.412;2023-07-31T04:05:32;20.02;74.99
5938;DHT22;2994;51.220;4.412;2023-07-31T04:07:57;20.17;74.67
5938;DHT22;2994;51.220;4.412;2023-07-31T04:10:23;20.18;74.88
5938;DHT22;2994;51.220;4.412;2023-07-31T04:12:48;20.06;75.76
5938;DHT22;2994;51.220;4.412;2023-07-31T04:15:14;19.86;76.89
5938;DHT22;2994;51.220;4.412;2023-07-31T04:17:39;19.86;77.08
5938;DHT22;2994;51.220;4.412;2023-07-31T04:20:05;19.81;77.43
5938;DHT22;2994;51.220;4.412;2023-07-31T04:22:31;19.87;76.98
5938;DHT22;2994;51.220;4.412;2023-07-31T04:24:56;19.94;76.76
5938;DHT22;2994;51.220;4.412;2023-07-31T04:27:30;20.00;76.56
5938;DHT22;2994;51.220;4.412;2023-07-31T04:29:56;19.71;78.14
5938;DHT22;2994;51.220;4.412;2023-07-31T04:32:25;19.72;78.22
5938;DHT22;2994;51.220;4.412;2023-07-31T04:34:50;19.81;77.93
5938;DHT22;2994;51.220;4.412;2023-07-31T04:37:18;19.81;78.25
5938;DHT22;2994;51.220;4.412;2023-07-31T04:39:46;19.90;77.69
5938;DHT22;2994;51.220;4.412;2023-07-31T04:42:14;19.83;78.22
5938;DHT22;2994;51.220;4.412;2023-07-31T04:44:44;19.82;78.45
5938;DHT22;2994;51.220;4.412;2023-07-31T04:47:15;19.79;78.56
5938;DHT22;2994;51.220;4.412;2023-07-31T04:49:44;19.82;78.55
5938;DHT22;2994;51.220;4.412;2023-07-31T04:52:10;19.86;78.52
5938;DHT22;2994;51.220;4.412;2023-07-31T04:54:35;19.84;78.91
5938;DHT22;2994;51.220;4.412;2023-07-31T04:57:01;19.71;79.58
5938;DHT22;2994;51.220;4.412;2023-07-31T04:59:28;19.83;79.13
5938;DHT22;2994;51.220;4.412;2023-07-31T05:01:53;19.84;79.04
5938;DHT22;2994;51.220;4.412;2023-07-31T05:04:19;19.77;79.40
5938;DHT22;2994;51.220;4.412;2023-07-31T05:06:44;19.83;79.24
5938;DHT22;2994;51.220;4.412;2023-07-31T05:09:14;19.68;79.71
5938;DHT22;2994;51.220;4.412;2023-07-31T05:11:40;19.74;79.34
5938;DHT22;2994;51.220;4.412;2023-07-31T05:14:08;19.61;80.17
5938;DHT22;2994;51.220;4.412;2023-07-31T05:16:36;19.62;80.07
5938;DHT22;2994;51.220;4.412;2023-07-31T05:19:01;19.65;79.99
5938;DHT22;2994;51.220;4.412;2023-07-31T05:21:28;19.63;80.02
5938;DHT22;2994;51.220;4.412;2023-07-31T05:23:55;19.66;80.01
5938;DHT22;2994;51.220;4.412;2023-07-31T05:26:29;19.60;80.40
5938;DHT22;2994;51.220;4.412;2023-07-31T05:28:55;19.70;79.95
5938;DHT22;2994;51.220;4.412;2023-07-31T05:31:20;19.67;80.16
5938;DHT22;2994;51.220;4.412;2023-07-31T05:33:49;19.73;80.11
5938;DHT22;2994;51.220;4.412;2023-07-31T05:36:15;19.73;80.12
5938;DHT22;2994;51.220;4.412;2023-07-31T05:38:41;19.80;79.91
5938;DHT22;2994;51.220;4.412;2023-07-31T05:41:11;19.69;80.56
5938;DHT22;2994;51.220;4.412;2023-07-31T05:43:37;19.79;80.22
5938;DHT22;2994;51.220;4.412;2023-07-31T06:02:41;19.51;81.68
5938;DHT22;2994;51.220;4.412;2023-07-31T06:07:43;19.72;80.62
5938;DHT22;2994;51.220;4.412;2023-07-31T06:17:59;19.77;80.33
5938;DHT22;2994;51.220;4.412;2023-07-31T06:20:41;19.88;79.89
5938;DHT22;2994;51.220;4.412;2023-07-31T06:36:04;19.96;79.45
5938;DHT22;2994;51.220;4.412;2023-07-31T06:38:42;19.86;80.12
5938;DHT22;2994;51.220;4.412;2023-07-31T06:41:07;19.92;79.84
5938;DHT22;2994;51.220;4.412;2023-07-31T06:43:33;19.91;79.82
5938;DHT22;2994;51.220;4.412;2023-07-31T06:46:04;19.90;79.64
5938;DHT22;2994;51.220;4.412;2023-07-31T06:48:30;19.57;81.08
5938;DHT22;2994;51.220;4.412;2023-07-31T06:50:58;19.77;80.07
5938;DHT22;2994;51.220;4.412;2023-07-31T06:53:32;19.86;79.75
5938;DHT22;2994;51.220;4.412;2023-07-31T06:55:58;19.88;79.66
5938;DHT22;2994;51.220;4.412;2023-07-31T06:58:23;19.86;79.95
5938;DHT22;2994;51.220;4.412;2023-07-31T07:00:49;19.91;79.66
5938;DHT22;2994;51.220;4.412;2023-07-31T07:03:19;20.01;79.30
5938;DHT22;2994;51.220;4.412;2023-07-31T07:05:45;20.09;79.01
5938;DHT22;2994;51.220;4.412;2023-07-31T07:08:11;20.11;78.95
5938;DHT22;2994;51.220;4.412;2023-07-31T07:10:37;19.99;79.40
5938;DHT22;2994;51.220;4.412;2023-07-31T07:13:02;20.07;78.92
5938;DHT22;2994;51.220;4.412;2023-07-31T07:15:27;20.07;78.84
5938;DHT22;2994;51.220;4.412;2023-07-31T07:17:54;20.06;78.88
5938;DHT22;2994;51.220;4.412;2023-07-31T07:20:19;20.12;78.63
5938;DHT22;2994;51.220;4.412;2023-07-31T07:22:45;20.00;79.00
5938;DHT22;2994;51.220;4.412;2023-07-31T07:25:11;19.92;79.29
5938;DHT22;2994;51.220;4.412;2023-07-31T07:27:36;19.97;79.04
5938;DHT22;2994;51.220;4.412;2023-07-31T07:30:02;19.72;80.17
5938;DHT22;2994;51.220;4.412;2023-07-31T07:32:28;19.92;79.05
5938;DHT22;2994;51.220;4.412;2023-07-31T07:34:55;19.97;78.97
5938;DHT22;2994;51.220;4.412;2023-07-31T07:37:20;19.99;78.78
5938;DHT22;2994;51.220;4.412;2023-07-31T07:39:46;20.02;78.60
5938;DHT22;2994;51.220;4.412;2023-07-31T07:42:11;19.90;79.04
5938;DHT22;2994;51.220;4.412;2023-07-31T07:44:37;19.85;78.90
5938;DHT22;2994;51.220;4.412;2023-07-31T07:47:02;19.94;78.47
5938;DHT22;2994;51.220;4.412;2023-07-31T07:49:28;19.92;78.54
5938;DHT22;2994;51.220;4.412;2023-07-31T07:51:53;19.98;78.27
5938;DHT22;2994;51.220;4.412;2023-07-31T07:54:19;19.98;78.27
5938;DHT22;2994;51.220;4.412;2023-07-31T07:56:46;20.06;77.89
5938;DHT22;2994;51.220;4.412;2023-07-31T07:59:11;20.19;77.39
5938;DHT22;2994;51.220;4.412;2023-07-31T08:01:37;20.20;77.34
5938;DHT22;2994;51.220;4.412;2023-07-31T08:04:03;20.44;76.57
5938;DHT22;2994;51.220;4.412;2023-07-31T08:06:28;20.50;76.15
5938;DHT22;2994;51.220;4.412;2023-07-31T08:08:55;20.54;76.02
5938;DHT22;2994;51.220;4.412;2023-07-31T08:11:20;20.54;75.63
5938;DHT22;2994;51.220;4.412;2023-07-31T08:13:47;20.60;75.55
5938;DHT22;2994;51.220;4.412;2023-07-31T08:16:12;20.58;75.73
5938;DHT22;2994;51.220;4.412;2023-07-31T08:18:38;20.57;75.79
5938;DHT22;2994;51.220;4.412;2023-07-31T08:21:03;20.48;75.87
5938;DHT22;2994;51.220;4.412;2023-07-31T08:23:29;20.57;75.37
5938;DHT22;2994;51.220;4.412;2023-07-31T08:25:54;20.66;75.06
5938;DHT22;2994;51.220;4.412;2023-07-31T08:28:20;20.69;74.83
5938;DHT22;2994;51.220;4.412;2023-07-31T08:30:45;20.75;74.82
5938;DHT22;2994;51.220;4.412;2023-07-31T08:33:10;20.69;75.10
5938;DHT22;2994;51.220;4.412;2023-07-31T08:35:36;20.71;74.78
5938;DHT22;2994;51.220;4.412;2023-07-31T08:38:01;20.79;74.58
5938;DHT22;2994;51.220;4.412;2023-07-31T08:40:28;20.79;74.47
5938;DHT22;2994;51.220;4.412;2023-07-31T08:42:55;20.86;74.44
5938;DHT22;2994;51.220;4.412;2023-07-31T08:45:27;20.86;74.24
5938;DHT22;2994;51.220;4.412;2023-07-31T08:47:53;20.76;74.44
5938;DHT22;2994;51.220;4.412;2023-07-31T08:50:20;20.74;74.46
5938;DHT22;2994;51.220;4.412;2023-07-31T08:52:47;20.95;73.70
5938;DHT22;2994;51.220;4.412;2023-07-31T08:55:14;21.04;73.30
5938;DHT22;2994;51.220;4.412;2023-07-31T08:57:39;21.01;73.43
5938;DHT22;2994;51.220;4.412;2023-07-31T09:00:09;21.15;73.02
5938;DHT22;2994;51.220;4.412;2023-07-31T09:02:46;21.27;72.79
5938;DHT22;2994;51.220;4.412;2023-07-31T09:05:14;21.21;73.07
5938;DHT22;2994;51.220;4.412;2023-07-31T09:07:40;21.33;72.52
5938;DHT22;2994;51.220;4.412;2023-07-31T09:10:07;21.48;71.82
5938;DHT22;2994;51.220;4.412;2023-07-31T09:12:32;21.43;72.04
5938;DHT22;2994;51.220;4.412;2023-07-31T09:14:58;21.36;72.08
5938;DHT22;2994;51.220;4.412;2023-07-31T09:17:31;21.33;72.06
5938;DHT22;2994;51.220;4.412;2023-07-31T09:19:57;21.24;72.40
5938;DHT22;2994;51.220;4.412;2023-07-31T09:22:34;21.21;72.56
5938;DHT22;2994;51.220;4.412;2023-07-31T09:25:19;21.21;72.65
5938;DHT22;2994;51.220;4.412;2023-07-31T09:28:08;21.25;72.52
5938;DHT22;2994;51.220;4.412;2023-07-31T09:30:51;21.44;72.04
5938;DHT22;2994;51.220;4.412;2023-07-31T09:33:18;21.22;72.56
5938;DHT22;2994;51.220;4.412;2023-07-31T09:35:43;21.11;72.89
5938;DHT22;2994;51.220;4.412;2023-07-31T09:38:11;21.30;72.32
5938;DHT22;2994;51.220;4.412;2023-07-31T09:40:39;21.32;72.39
5938;DHT22;2994;51.220;4.412;2023-07-31T09:45:54;21.45;71.90
5938;DHT22;2994;51.220;4.412;2023-07-31T09:48:20;21.45;71.97
5938;DHT22;2994;51.220;4.412;2023-07-31T09:50:48;21.52;71.83
5938;DHT22;2994;51.220;4.412;2023-07-31T09:53:16;21.46;71.96
5938;DHT22;2994;51.220;4.412;2023-07-31T09:55:42;21.54;71.82
5938;DHT22;2994;51.220;4.412;2023-07-31T09:58:10;21.45;72.23
5938;DHT22;2994;51.220;4.412;2023-07-31T10:00:36;21.19;72.97
5938;DHT22;2994;51.220;4.412;2023-07-31T10:03:13;21.22;72.97
5938;DHT22;2994;51.220;4.412;2023-07-31T10:08:29;21.19;73.31
5938;DHT22;2994;51.220;4.412;2023-07-31T10:10:58;21.32;73.06
5938;DHT22;2994;51.220;4.412;2023-07-31T10:13:34;21.38;72.89
5938;DHT22;2994;51.220;4.412;2023-07-31T10:16:23;21.46;72.71
5938;DHT22;2994;51.220;4.412;2023-07-31T10:18:53;21.33;73.04
5938;DHT22;2994;51.220;4.412;2023-07-31T10:26:31;21.21;73.56
5938;DHT22;2994;51.220;4.412;2023-07-31T10:28:58;21.09;74.24
5938;DHT22;2994;51.220;4.412;2023-07-31T10:31:24;21.10;74.43
5938;DHT22;2994;51.220;4.412;2023-07-31T10:33:52;20.99;75.26
5938;DHT22;2994;51.220;4.412;2023-07-31T10:36:20;20.96;75.53
5938;DHT22;2994;51.220;4.412;2023-07-31T10:38:48;20.83;76.32
5938;DHT22;2994;51.220;4.412;2023-07-31T10:41:14;21.02;75.66
5938;DHT22;2994;51.220;4.412;2023-07-31T10:43:40;21.07;75.55
5938;DHT22;2994;51.220;4.412;2023-07-31T10:46:11;20.99;76.08
5938;DHT22;2994;51.220;4.412;2023-07-31T10:48:39;21.14;75.32
5938;DHT22;2994;51.220;4.412;2023-07-31T10:51:11;21.08;75.56
5938;DHT22;2994;51.220;4.412;2023-07-31T10:53:38;21.17;75.18
5938;DHT22;2994;51.220;4.412;2023-07-31T10:56:05;21.17;75.31
5938;DHT22;2994;51.220;4.412;2023-07-31T10:58:31;21.27;75.09
5938;DHT22;2994;51.220;4.412;2023-07-31T11:01:05;21.24;75.54
5938;DHT22;2994;51.220;4.412;2023-07-31T11:03:51;21.33;75.79
5938;DHT22;2994;51.220;4.412;2023-07-31T11:06:18;21.50;75.22
5938;DHT22;2994;51.220;4.412;2023-07-31T11:08:48;21.64;74.93
5938;DHT22;2994;51.220;4.412;2023-07-31T11:11:18;21.65;74.93
5938;DHT22;2994;51.220;4.412;2023-07-31T11:13:48;21.53;75.47
5938;DHT22;2994;51.220;4.412;2023-07-31T11:16:31;21.53;75.45
5938;DHT22;2994;51.220;4.412;2023-07-31T11:18:56;21.50;75.25
5938;DHT22;2994;51.220;4.412;2023-07-31T11:21:23;21.57;75.12
5938;DHT22;2994;51.220;4.412;2023-07-31T11:24:28;21.62;74.86
5938;DHT22;2994;51.220;4.412;2023-07-31T11:26:53;21.55;75.09
5938;DHT22;2994;51.220;4.412;2023-07-31T11:29:19;21.58;75.08
5938;DHT22;2994;51.220;4.412;2023-07-31T11:31:51;21.57;75.18
5938;DHT22;2994;51.220;4.412;2023-07-31T11:34:16;21.65;74.83
5938;DHT22;2994;51.220;4.412;2023-07-31T11:39:20;21.78;74.33
5938;DHT22;2994;51.220;4.412;2023-07-31T11:41:47;21.78;74.25
5938;DHT22;2994;51.220;4.412;2023-07-31T11:44:12;21.80;74.11
5938;DHT22;2994;51.220;4.412;2023-07-31T11:46:38;21.82;73.99
5938;DHT22;2994;51.220;4.412;2023-07-31T11:49:04;21.79;74.06
5938;DHT22;2994;51.220;4.412;2023-07-31T11:51:29;21.80;73.90
5938;DHT22;2994;51.220;4.412;2023-07-31T11:53:57;21.79;73.88
5938;DHT22;2994;51.220;4.412;2023-07-31T11:56:24;21.73;74.09
5938;DHT22;2994;51.220;4.412;2023-07-31T11:58:54;21.54;74.86
5938;DHT22;2994;51.220;4.412;2023-07-31T12:01:21;21.78;73.95
5938;DHT22;2994;51.220;4.412;2023-07-31T12:03:47;21.90;73.51
5938;DHT22;2994;51.220;4.412;2023-07-31T12:06:13;21.73;74.38
5938;DHT22;2994;51.220;4.412;2023-07-31T12:08:38;22.05;73.41
5938;DHT22;2994;51.220;4.412;2023-07-31T12:11:05;22.21;72.93
5938;DHT22;2994;51.220;4.412;2023-07-31T12:13:32;22.19;73.35
5938;DHT22;2994;51.220;4.412;2023-07-31T12:16:03;22.23;73.41
5938;DHT22;2994;51.220;4.412;2023-07-31T12:18:33;22.28;73.27
5938;DHT22;2994;51.220;4.412;2023-07-31T12:21:00;22.17;73.64
5938;DHT22;2994;51.220;4.412;2023-07-31T12:23:30;22.26;73.09
5938;DHT22;2994;51.220;4.412;2023-07-31T12:26:13;22.47;72.44
5938;DHT22;2994;51.220;4.412;2023-07-31T12:28:45;22.53;72.05
5938;DHT22;2994;51.220;4.412;2023-07-31T12:31:13;22.52;71.78
5938;DHT22;2994;51.220;4.412;2023-07-31T12:33:40;22.53;71.66
5938;DHT22;2994;51.220;4.412;2023-07-31T12:36:11;22.50;71.57
5938;DHT22;2994;51.220;4.412;2023-07-31T12:38:37;22.43;71.77
5938;DHT22;2994;51.220;4.412;2023-07-31T12:41:03;22.35;71.80
5938;DHT22;2994;51.220;4.412;2023-07-31T12:43:29;22.36;71.63
5938;DHT22;2994;51.220;4.412;2023-07-31T12:45:55;22.36;71.51
5938;DHT22;2994;51.220;4.412;2023-07-31T12:48:23;22.20;72.16
5938;DHT22;2994;51.220;4.412;2023-07-31T12:50:49;22.27;71.84
5938;DHT22;2994;51.220;4.412;2023-07-31T12:53:17;22.26;72.14
5938;DHT22;2994;51.220;4.412;2023-07-31T12:55:42;22.36;71.78
5938;DHT22;2994;51.220;4.412;2023-07-31T12:58:08;22.18;72.47
5938;DHT22;2994;51.220;4.412;2023-07-31T13:00:33;22.22;72.33
5938;DHT22;2994;51.220;4.412;2023-07-31T13:02:59;22.16;72.23
5938;DHT22;2994;51.220;4.412;2023-07-31T13:05:26;22.22;72.22
5938;DHT22;2994;51.220;4.412;2023-07-31T13:07:52;22.35;71.91
5938;DHT22;2994;51.220;4.412;2023-07-31T13:10:18;22.34;72.62
5938;DHT22;2994;51.220;4.412;2023-07-31T13:12:43;22.60;72.43
5938;DHT22;2994;51.220;4.412;2023-07-31T13:15:09;22.56;72.93
5938;DHT22;2994;51.220;4.412;2023-07-31T13:17:35;22.34;73.63
5938;DHT22;2994;51.220;4.412;2023-07-31T13:20:01;22.32;73.99
5938;DHT22;2994;51.220;4.412;2023-07-31T13:22:26;22.41;73.95
5938;DHT22;2994;51.220;4.412;2023-07-31T13:24:52;22.29;74.42
5938;DHT22;2994;51.220;4.412;2023-07-31T13:27:18;22.04;75.73
5938;DHT22;2994;51.220;4.412;2023-07-31T13:29:45;22.11;75.59
5938;DHT22;2994;51.220;4.412;2023-07-31T13:32:11;22.19;75.60
5938;DHT22;2994;51.220;4.412;2023-07-31T13:34:36;22.13;75.76
5938;DHT22;2994;51.220;4.412;2023-07-31T13:37:02;22.07;75.98
5938;DHT22;2994;51.220;4.412;2023-07-31T13:39:28;21.99;76.33
5938;DHT22;2994;51.220;4.412;2023-07-31T13:41:53;21.77;77.31
5938;DHT22;2994;51.220;4.412;2023-07-31T13:44:19;21.87;76.82
5938;DHT22;2994;51.220;4.412;2023-07-31T13:46:44;21.81;77.08
5938;DHT22;2994;51.220;4.412;2023-07-31T13:49:10;21.76;77.41
5938;DHT22;2994;51.220;4.412;2023-07-31T13:51:35;21.62;78.20
5938;DHT22;2994;51.220;4.412;2023-07-31T13:54:01;21.49;78.62
5938;DHT22;2994;51.220;4.412;2023-07-31T13:56:26;21.52;78.23
5938;DHT22;2994;51.220;4.412;2023-07-31T13:58:52;21.57;78.08
5938;DHT22;2994;51.220;4.412;2023-07-31T14:01:17;21.54;78.39
5938;DHT22;2994;51.220;4.412;2023-07-31T14:03:43;21.23;80.00
5938;DHT22;2994;51.220;4.412;2023-07-31T14:06:08;21.27;79.88
5938;DHT22;2994;51.220;4.412;2023-07-31T14:08:34;21.25;79.82
5938;DHT22;2994;51.220;4.412;2023-07-31T14:10:59;21.27;79.69
5938;DHT22;2994;51.220;4.412;2023-07-31T14:13:24;21.15;80.36
5938;DHT22;2994;51.220;4.412;2023-07-31T14:15:50;21.22;80.05
5938;DHT22;2994;51.220;4.412;2023-07-31T14:18:15;21.02;80.98
5938;DHT22;2994;51.220;4.412;2023-07-31T14:20:41;20.91;81.49
5938;DHT22;2994;51.220;4.412;2023-07-31T14:23:06;21.07;80.74
5938;DHT22;2994;51.220;4.412;2023-07-31T14:25:31;21.16;80.23
5938;DHT22;2994;51.220;4.412;2023-07-31T14:27:57;21.04;80.91
5938;DHT22;2994;51.220;4.412;2023-07-31T14:30:22;20.89;81.65
5938;DHT22;2994;51.220;4.412;2023-07-31T14:32:48;20.75;82.39
5938;DHT22;2994;51.220;4.412;2023-07-31T14:35:13;20.71;82.28
5938;DHT22;2994;51.220;4.412;2023-07-31T14:37:40;20.89;81.40
5938;DHT22;2994;51.220;4.412;2023-07-31T14:40:07;20.81;81.86
5938;DHT22;2994;51.220;4.412;2023-07-31T14:42:34;20.58;82.86
5938;DHT22;2994;51.220;4.412;2023-07-31T14:45:00;20.65;82.42
5938;DHT22;2994;51.220;4.412;2023-07-31T14:47:25;20.76;81.96
5938;DHT22;2994;51.220;4.412;2023-07-31T14:49:51;20.47;83.42
5938;DHT22;2994;51.220;4.412;2023-07-31T14:52:16;20.55;83.00
5938;DHT22;2994;51.220;4.412;2023-07-31T14:54:42;20.61;82.68
5938;DHT22;2994;51.220;4.412;2023-07-31T14:57:08;20.74;81.97
5938;DHT22;2994;51.220;4.412;2023-07-31T14:59:33;20.65;82.61
5938;DHT22;2994;51.220;4.412;2023-07-31T15:01:59;20.75;82.20
5938;DHT22;2994;51.220;4.412;2023-07-31T15:04:24;20.74;82.18
5938;DHT22;2994;51.220;4.412;2023-07-31T15:06:51;20.85;81.68
5938;DHT22;2994;51.220;4.412;2023-07-31T15:09:17;20.80;82.10
5938;DHT22;2994;51.220;4.412;2023-07-31T15:11:42;20.76;82.29
5938;DHT22;2994;51.220;4.412;2023-07-31T15:14:07;20.84;81.86
5938;DHT22;2994;51.220;4.412;2023-07-31T15:16:33;20.75;82.34
5938;DHT22;2994;51.220;4.412;2023-07-31T15:18:58;20.59;83.27
5938;DHT22;2994;51.220;4.412;2023-07-31T15:21:24;20.43;84.24
5938;DHT22;2994;51.220;4.412;2023-07-31T15:23:49;20.61;83.23
5938;DHT22;2994;51.220;4.412;2023-07-31T15:26:15;20.66;83.00
5938;DHT22;2994;51.220;4.412;2023-07-31T15:28:40;20.74;82.51
5938;DHT22;2994;51.220;4.412;2023-07-31T15:31:05;20.71;82.76
5938;DHT22;2994;51.220;4.412;2023-07-31T15:33:31;20.72;82.84
5938;DHT22;2994;51.220;4.412;2023-07-31T15:35:57;20.75;82.72
5938;DHT22;2994;51.220;4.412;2023-07-31T15:38:23;20.84;82.20
5938;DHT22;2994;51.220;4.412;2023-07-31T15:40:48;20.68;83.13
5938;DHT22;2994;51.220;4.412;2023-07-31T15:43:16;20.86;82.12
5938;DHT22;2994;51.220;4.412;2023-07-31T15:45:41;20.84;82.23
5938;DHT22;2994;51.220;4.412;2023-07-31T15:48:07;20.90;81.86
5938;DHT22;2994;51.220;4.412;2023-07-31T15:50:32;20.85;82.18
5938;DHT22;2994;51.220;4.412;2023-07-31T15:52:58;20.88;82.07
5938;DHT22;2994;51.220;4.412;2023-07-31T15:55:23;20.88;82.15
5938;DHT22;2994;51.220;4.412;2023-07-31T15:57:50;20.75;82.75
5938;DHT22;2994;51.220;4.412;2023-07-31T16:00:16;20.89;82.08
5938;DHT22;2994;51.220;4.412;2023-07-31T16:02:41;20.86;82.32
5938;DHT22;2994;51.220;4.412;2023-07-31T16:05:07;20.75;82.84
5938;DHT22;2994;51.220;4.412;2023-07-31T16:07:32;20.83;82.46
5938;DHT22;2994;51.220;4.412;2023-07-31T16:09:58;20.84;82.56
5938;DHT22;2994;51.220;4.412;2023-07-31T16:12:23;20.78;82.87
5938;DHT22;2994;51.220;4.412;2023-07-31T16:14:49;20.81;82.61
5938;DHT22;2994;51.220;4.412;2023-07-31T16:17:15;20.77;82.87
5938;DHT22;2994;51.220;4.412;2023-07-31T16:19:40;20.61;83.74
5938;DHT22;2994;51.220;4.412;2023-07-31T16:22:06;20.69;83.37
5938;DHT22;2994;51.220;4.412;2023-07-31T16:24:31;20.72;83.23
5938;DHT22;2994;51.220;4.412;2023-07-31T16:26:57;20.77;83.00
5938;DHT22;2994;51.220;4.412;2023-07-31T16:29:22;20.84;82.71
5938;DHT22;2994;51.220;4.412;2023-07-31T16:31:48;20.78;82.92
5938;DHT22;2994;51.220;4.412;2023-07-31T16:34:13;20.80;82.85
5938;DHT22;2994;51.220;4.412;2023-07-31T16:36:39;20.79;82.85
5938;DHT22;2994;51.220;4.412;2023-07-31T16:39:04;20.80;82.87
5938;DHT22;2994;51.220;4.412;2023-07-31T16:41:30;20.86;82.65
5938;DHT22;2994;51.220;4.412;2023-07-31T16:43:55;20.68;83.64
5938;DHT22;2994;51.220;4.412;2023-07-31T16:46:20;20.77;83.17
5938;DHT22;2994;51.220;4.412;2023-07-31T16:48:46;20.71;83.49
5938;DHT22;2994;51.220;4.412;2023-07-31T16:51:11;20.81;83.04
5938;DHT22;2994;51.220;4.412;2023-07-31T16:53:39;20.77;83.28
5938;DHT22;2994;51.220;4.412;2023-07-31T16:56:04;20.79;83.12
5938;DHT22;2994;51.220;4.412;2023-07-31T16:58:32;20.83;83.08
5938;DHT22;2994;51.220;4.412;2023-07-31T17:00:58;20.81;83.07